createdAt,value
2023-01-17T00:02:18.027Z,1.25
2023-01-17T00:04:46.019Z,1.65
2023-01-17T00:07:16.467Z,1.65
2023-01-17T00:09:43.441Z,2.08
2023-01-17T00:12:10.428Z,3.22
2023-01-17T00:14:38.778Z,1.00
2023-01-17T00:17:05.567Z,1.90
2023-01-17T00:19:32.278Z,1.98
2023-01-17T00:21:59.142Z,3.95
2023-01-17T00:24:25.866Z,1.77
2023-01-17T00:26:52.788Z,1.90
2023-01-17T00:29:19.535Z,1.70
2023-01-17T00:31:47.808Z,2.03
2023-01-17T00:34:14.669Z,2.15
2023-01-17T00:36:41.647Z,1.65
2023-01-17T00:39:08.399Z,2.38
2023-01-17T00:41:35.141Z,3.28
2023-01-17T00:44:01.902Z,2.22
2023-01-17T00:46:28.663Z,3.33
2023-01-17T00:48:56.863Z,1.25
2023-01-17T00:51:24.467Z,2.35
2023-01-17T00:53:51.230Z,2.80
2023-01-17T00:56:43.085Z,1.10
2023-01-17T00:59:09.798Z,1.08
2023-01-17T01:01:36.788Z,1.40
2023-01-17T01:04:05.579Z,1.80
2023-01-17T01:06:32.349Z,1.58
2023-01-17T01:08:59.056Z,1.15
2023-01-17T01:11:26.201Z,1.35
2023-01-17T01:13:53.499Z,1.85
2023-01-17T01:16:20.620Z,1.15
2023-01-17T01:21:41.280Z,1.50
2023-01-17T01:24:08.111Z,2.70
2023-01-17T01:26:35.111Z,3.10
2023-01-17T01:29:01.853Z,1.73
2023-01-17T01:31:28.700Z,1.42
2023-01-17T01:33:55.805Z,2.38
2023-01-17T01:36:22.556Z,3.47
2023-01-17T01:38:50.888Z,1.00
2023-01-17T01:41:17.891Z,2.35
2023-01-17T01:43:48.782Z,1.52
2023-01-17T01:46:20.524Z,3.17
2023-01-17T01:48:54.080Z,1.58
2023-01-17T01:51:26.287Z,1.13
2023-01-17T01:54:02.345Z,1.35
2023-01-17T01:56:31.332Z,3.30
2023-01-17T01:59:01.368Z,1.27
2023-01-17T02:01:45.222Z,2.90
2023-01-17T02:04:13.729Z,1.20
2023-01-17T02:06:47.824Z,1.70
2023-01-17T02:09:19.170Z,3.30
2023-01-17T02:11:49.056Z,1.60
2023-01-17T02:14:16.624Z,2.00
2023-01-17T02:17:02.081Z,1.75
2023-01-17T02:20:20.025Z,2.30
2023-01-17T02:23:32.785Z,0.73
2023-01-17T02:26:45.717Z,1.38
2023-01-17T02:29:54.554Z,2.20
2023-01-17T02:32:37.892Z,1.77
2023-01-17T02:35:16.066Z,2.17
2023-01-17T02:37:57.676Z,1.42
2023-01-17T02:40:31.533Z,2.10
2023-01-17T02:43:07.056Z,1.65
2023-01-17T02:45:33.939Z,3.65
2023-01-17T02:48:03.333Z,1.95
2023-01-17T02:50:52.403Z,2.22
2023-01-17T02:53:37.463Z,2.20
2023-01-17T02:56:17.992Z,1.55
2023-01-17T02:59:06.439Z,1.83
2023-01-17T03:01:47.728Z,1.10
2023-01-17T03:04:24.371Z,1.98
2023-01-17T03:06:58.527Z,1.75
2023-01-17T03:09:26.697Z,1.70
2023-01-17T03:11:54.466Z,2.42
2023-01-17T03:14:21.748Z,1.75
2023-01-17T03:16:49.117Z,3.17
2023-01-17T03:19:17.564Z,1.20
2023-01-17T03:21:44.515Z,2.53
2023-01-17T03:24:11.397Z,2.42
2023-01-17T03:26:38.431Z,2.45
2023-01-17T03:29:05.213Z,3.30
2023-01-17T03:31:32.180Z,2.67
2023-01-17T03:33:59.226Z,2.97
2023-01-17T03:36:27.336Z,2.65
2023-01-17T03:38:54.191Z,3.35
2023-01-17T03:41:20.941Z,3.75
2023-01-17T03:43:47.652Z,2.58
2023-01-17T03:46:22.047Z,2.60
2023-01-17T03:48:49.777Z,3.50
2023-01-17T03:51:17.335Z,2.78
2023-01-17T03:53:45.825Z,3.17
2023-01-17T03:56:13.430Z,2.72
2023-01-17T03:58:41.558Z,3.53
2023-01-17T04:04:01.064Z,3.88
2023-01-17T04:06:28.211Z,3.58
2023-01-17T04:08:56.438Z,4.40
2023-01-17T04:11:23.813Z,5.15
2023-01-17T04:13:50.815Z,4.68
2023-01-17T04:16:19.273Z,3.90
2023-01-17T04:18:46.108Z,6.57
2023-01-17T04:21:13.027Z,5.05
2023-01-17T04:23:39.946Z,5.45
2023-01-17T04:26:09.482Z,5.30
2023-01-17T04:28:36.237Z,5.60
2023-01-17T04:31:03.251Z,9.38
2023-01-17T04:33:30.313Z,7.07
2023-01-17T04:35:57.440Z,5.68
2023-01-17T04:38:24.385Z,5.03
2023-01-17T04:40:51.684Z,7.10
2023-01-17T04:43:19.802Z,10.13
2023-01-17T04:45:46.731Z,7.15
2023-01-17T04:48:13.815Z,8.20
2023-01-17T04:50:40.592Z,7.68
2023-01-17T04:53:07.454Z,7.03
2023-01-17T04:55:34.304Z,8.00
2023-01-17T04:58:01.228Z,8.55
2023-01-17T05:00:29.581Z,8.10
2023-01-17T05:02:56.601Z,7.72
2023-01-17T05:05:23.703Z,6.90
2023-01-17T05:07:55.282Z,6.78
2023-01-17T05:10:25.764Z,6.18
2023-01-17T05:12:56.331Z,6.28
2023-01-17T05:15:24.247Z,5.85
2023-01-17T05:17:54.003Z,6.22
2023-01-17T05:20:22.774Z,6.00
2023-01-17T05:22:52.856Z,4.18
2023-01-17T05:25:19.666Z,3.95
2023-01-17T05:27:46.581Z,2.78
2023-01-17T05:30:14.429Z,3.25
2023-01-17T05:32:41.963Z,2.53
2023-01-17T05:35:10.321Z,2.60
2023-01-17T05:37:37.095Z,1.60
2023-01-17T05:40:08.609Z,1.75
2023-01-17T05:42:35.350Z,1.20
2023-01-17T05:45:02.147Z,1.08
2023-01-17T05:47:29.296Z,1.08
2023-01-17T05:49:56.153Z,0.90
2023-01-17T05:52:24.297Z,1.27
2023-01-17T05:54:51.068Z,1.35
2023-01-17T05:57:18.048Z,3.15
2023-01-17T05:59:44.786Z,2.17
2023-01-17T06:02:11.830Z,1.17
2023-01-17T06:04:38.662Z,1.58
2023-01-17T06:07:05.469Z,1.52
2023-01-17T06:09:33.567Z,1.90
2023-01-17T06:12:00.471Z,1.85
2023-01-17T06:14:27.272Z,2.47
2023-01-17T06:16:54.304Z,2.58
2023-01-17T06:19:21.038Z,2.17
2023-01-17T06:21:47.936Z,3.22
2023-01-17T06:24:15.181Z,2.78
2023-01-17T06:26:44.785Z,1.80
2023-01-17T06:29:12.187Z,2.28
2023-01-17T06:31:39.118Z,2.03
2023-01-17T06:34:05.905Z,1.98
2023-01-17T06:36:33.296Z,1.00
2023-01-17T06:39:00.013Z,1.08
2023-01-17T06:41:26.992Z,0.57
2023-01-17T06:43:55.951Z,0.20
2023-01-17T06:46:23.166Z,0.47
2023-01-17T06:48:50.453Z,0.20
2023-01-17T06:51:17.513Z,0.70
2023-01-17T06:53:44.173Z,0.00
2023-01-17T06:56:11.083Z,1.88
2023-01-17T06:58:37.879Z,0.60
2023-01-17T07:01:11.004Z,0.85
2023-01-17T07:03:38.449Z,1.25
2023-01-17T07:06:05.998Z,0.20
2023-01-17T07:08:33.159Z,0.85
2023-01-17T07:11:02.350Z,0.40
2023-01-17T07:13:30.245Z,0.40
2023-01-17T07:16:00.638Z,0.98
2023-01-17T07:23:47.032Z,0.73
2023-01-17T07:26:13.926Z,0.73
2023-01-17T07:28:40.799Z,1.33
2023-01-17T07:31:08.458Z,2.25
2023-01-17T07:33:36.811Z,0.35
2023-01-17T07:36:06.635Z,1.00
2023-01-17T07:38:34.180Z,2.30
2023-01-17T07:41:01.672Z,5.95
2023-01-17T07:43:28.613Z,2.22
2023-01-17T07:45:55.765Z,1.35
2023-01-17T07:48:24.800Z,2.83
2023-01-17T07:50:54.675Z,4.28
2023-01-17T07:53:23.271Z,3.78
2023-01-17T07:55:50.384Z,2.35
2023-01-17T07:58:17.856Z,3.90
2023-01-17T08:00:44.916Z,1.15
2023-01-17T08:03:14.312Z,1.73
2023-01-17T08:05:43.031Z,4.05
2023-01-17T08:08:11.135Z,1.35
2023-01-17T08:10:37.893Z,4.68
2023-01-17T08:13:04.972Z,3.28
2023-01-17T08:15:31.875Z,3.45
2023-01-17T08:17:58.686Z,2.55
2023-01-17T08:20:27.959Z,3.50
2023-01-17T08:22:56.595Z,2.08
2023-01-17T08:25:26.084Z,3.65
2023-01-17T08:27:57.732Z,3.40
2023-01-17T08:30:25.537Z,3.03
2023-01-17T08:32:52.561Z,2.80
2023-01-17T08:35:19.679Z,2.90
2023-01-17T08:37:47.416Z,3.53
2023-01-17T08:40:15.690Z,5.32
2023-01-17T08:42:45.477Z,4.38
2023-01-17T08:45:12.718Z,4.55
2023-01-17T08:47:39.621Z,1.52
2023-01-17T08:50:07.213Z,3.50
2023-01-17T08:52:34.407Z,2.13
2023-01-17T08:55:01.476Z,2.33
2023-01-17T08:57:29.071Z,3.03
2023-01-17T08:59:57.157Z,2.35
2023-01-17T09:02:24.044Z,1.95
2023-01-17T09:04:51.481Z,2.35
2023-01-17T09:07:21.009Z,2.97
2023-01-17T09:09:47.722Z,4.35
2023-01-17T09:12:14.575Z,3.88
2023-01-17T09:14:41.659Z,2.28
2023-01-17T09:17:10.226Z,3.45
2023-01-17T09:19:37.064Z,1.58
2023-01-17T09:22:05.031Z,1.25
2023-01-17T09:24:31.807Z,1.25
2023-01-17T09:26:58.671Z,3.65
2023-01-17T09:29:25.620Z,3.50
2023-01-17T09:31:52.369Z,1.85
2023-01-17T09:34:20.619Z,0.70
2023-01-17T09:36:47.542Z,0.73
2023-01-17T09:39:14.349Z,0.70
2023-01-17T09:41:50.031Z,1.13
2023-01-17T09:44:26.674Z,2.55
2023-01-17T09:46:58.595Z,2.75
2023-01-17T09:49:41.972Z,0.73
2023-01-17T09:52:14.338Z,2.17
2023-01-17T09:57:36.336Z,0.98
2023-01-17T10:00:20.693Z,3.30
2023-01-17T10:03:35.097Z,1.42
2023-01-17T10:06:21.473Z,3.80
2023-01-17T10:09:17.210Z,2.15
2023-01-17T10:12:11.769Z,1.85
2023-01-17T10:14:59.905Z,5.88
2023-01-17T10:17:40.921Z,1.30
2023-01-17T10:20:42.462Z,3.10
2023-01-17T10:23:42.217Z,1.27
2023-01-17T10:26:14.370Z,1.50
2023-01-17T10:28:46.844Z,1.92
2023-01-17T10:31:22.198Z,3.88
2023-01-17T10:33:52.745Z,1.02
2023-01-17T10:36:22.520Z,1.33
2023-01-17T10:38:55.004Z,0.85
2023-01-17T10:41:28.206Z,2.28
2023-01-17T10:44:06.668Z,2.55
2023-01-17T10:46:41.089Z,2.17
2023-01-17T10:49:17.369Z,1.80
2023-01-17T10:52:03.745Z,1.88
2023-01-17T10:54:58.430Z,2.25
2023-01-17T10:57:27.940Z,2.92
2023-01-17T11:00:00.168Z,0.90
2023-01-17T11:02:32.900Z,5.53
2023-01-17T11:05:12.648Z,1.35
2023-01-17T11:07:56.287Z,4.72
2023-01-17T11:10:37.906Z,1.52
2023-01-17T11:13:22.513Z,1.65
2023-01-17T11:15:53.663Z,1.48
2023-01-17T11:18:21.510Z,1.50
2023-01-17T11:20:49.239Z,3.55
2023-01-17T11:23:20.238Z,3.08
2023-01-17T11:25:55.625Z,2.05
2023-01-17T11:28:25.861Z,1.92
2023-01-17T11:30:55.780Z,2.92
2023-01-17T11:33:36.357Z,1.48
2023-01-17T11:36:03.432Z,1.48
2023-01-17T11:38:30.394Z,1.75
2023-01-17T11:41:09.033Z,1.05
2023-01-17T11:43:53.151Z,1.40
2023-01-17T11:46:21.150Z,1.08
2023-01-17T11:48:52.928Z,1.73
2023-01-17T11:51:26.780Z,2.40
2023-01-17T11:54:02.235Z,2.33
2023-01-17T11:56:36.368Z,0.15
2023-01-17T11:59:28.597Z,1.70
2023-01-17T12:02:28.594Z,2.90
2023-01-17T12:05:20.656Z,0.80
2023-01-17T12:08:01.422Z,2.35
2023-01-17T12:10:38.913Z,1.02
2023-01-17T12:13:19.278Z,2.05
2023-01-17T12:16:02.666Z,2.53
2023-01-17T12:18:52.095Z,0.95
2023-01-17T12:21:35.107Z,0.85
2023-01-17T12:24:29.629Z,1.75
2023-01-17T12:27:12.171Z,2.03
2023-01-17T12:30:00.986Z,1.45
2023-01-17T12:32:54.136Z,0.73
2023-01-17T12:35:27.865Z,1.48
2023-01-17T12:38:05.193Z,0.40
2023-01-17T12:40:39.640Z,2.78
2023-01-17T12:43:17.659Z,1.25
2023-01-17T12:45:49.320Z,0.68
2023-01-17T12:48:19.981Z,0.40
2023-01-17T12:50:54.337Z,1.23
2023-01-17T12:53:32.466Z,0.38
2023-01-17T12:56:08.597Z,0.95
2023-01-17T12:58:41.856Z,2.40
2023-01-17T13:01:29.886Z,1.38
2023-01-17T13:04:16.666Z,2.25
2023-01-17T13:07:02.061Z,0.82
2023-01-17T13:09:37.443Z,0.75
2023-01-17T13:12:09.796Z,0.25
2023-01-17T13:14:37.087Z,0.82
2023-01-17T13:17:26.458Z,1.15
2023-01-17T13:20:02.149Z,0.70
2023-01-17T13:22:31.983Z,1.45
2023-01-17T13:25:15.976Z,2.80
2023-01-17T13:28:22.032Z,1.63
2023-01-17T13:31:32.229Z,1.10
2023-01-17T13:34:25.874Z,0.50
2023-01-17T13:37:21.424Z,1.42
2023-01-17T13:40:21.263Z,1.92
2023-01-17T13:42:55.202Z,0.68
2023-01-17T13:45:28.075Z,0.57
2023-01-17T13:48:24.030Z,1.80
2023-01-17T13:50:53.625Z,1.20
2023-01-17T13:56:40.735Z,0.43
2023-01-17T13:59:38.175Z,2.00
2023-01-17T14:02:37.067Z,0.10
2023-01-17T14:05:11.105Z,0.57
2023-01-17T14:07:48.314Z,0.40
2023-01-17T14:10:33.802Z,1.13
2023-01-17T14:13:03.477Z,0.40
2023-01-17T14:15:34.692Z,2.55
2023-01-17T14:18:03.880Z,0.70
2023-01-17T14:21:03.014Z,2.70
2023-01-17T14:23:59.022Z,2.03
2023-01-17T14:26:44.038Z,0.15
2023-01-17T14:29:54.737Z,0.32
2023-01-17T14:32:25.799Z,1.85
2023-01-17T14:34:53.468Z,0.68
2023-01-17T14:37:33.197Z,1.10
2023-01-17T14:40:01.950Z,1.27
2023-01-17T14:42:32.871Z,0.20
2023-01-17T14:45:05.771Z,2.63
2023-01-17T14:47:37.021Z,0.63
2023-01-17T14:50:23.899Z,0.85
2023-01-17T14:53:14.721Z,0.20
2023-01-17T14:55:54.082Z,1.17
2023-01-17T14:58:24.336Z,1.00
2023-01-17T15:00:56.825Z,1.33
2023-01-17T15:03:24.177Z,0.40
2023-01-17T15:05:56.042Z,0.10
2023-01-17T15:08:32.903Z,2.03
2023-01-17T15:11:07.648Z,0.38
2023-01-17T15:13:44.801Z,0.25
2023-01-17T15:16:20.831Z,0.47
2023-01-17T15:18:48.544Z,0.88
2023-01-17T15:21:18.740Z,0.88
2023-01-17T15:23:51.535Z,1.60
2023-01-17T15:26:24.674Z,1.35
2023-01-17T15:28:53.264Z,0.60
2023-01-17T15:31:39.245Z,1.88
2023-01-17T15:34:14.554Z,2.35
2023-01-17T15:36:41.598Z,0.70
2023-01-17T15:39:20.228Z,0.60
2023-01-17T15:41:52.751Z,0.98
2023-01-17T15:44:39.097Z,1.55
2023-01-17T15:47:29.184Z,2.75
2023-01-17T15:49:57.413Z,1.40
2023-01-17T15:52:24.305Z,0.93
2023-01-17T15:54:52.882Z,0.98
2023-01-17T15:57:32.409Z,2.35
2023-01-17T16:00:04.356Z,3.25
2023-01-17T16:02:38.983Z,1.98
2023-01-17T16:05:36.812Z,2.88
2023-01-17T16:08:28.321Z,1.20
2023-01-17T16:10:57.336Z,2.47
2023-01-17T16:13:25.670Z,1.90
2023-01-17T16:15:52.630Z,10.60
2023-01-17T16:21:23.475Z,3.15
2023-01-17T16:23:54.063Z,7.47
2023-01-17T16:26:21.250Z,6.53
2023-01-17T16:28:50.185Z,2.53
2023-01-17T16:31:17.622Z,3.45
2023-01-17T16:33:44.689Z,2.85
2023-01-17T16:36:16.285Z,4.05
2023-01-17T16:38:44.632Z,2.83
2023-01-17T16:41:11.764Z,1.95
2023-01-17T16:43:38.925Z,8.65
2023-01-17T16:46:09.739Z,2.95
2023-01-17T16:48:38.235Z,3.38
2023-01-17T16:51:07.247Z,2.33
2023-01-17T16:53:35.427Z,4.70
2023-01-17T16:56:09.655Z,1.80
2023-01-17T16:58:36.511Z,6.35
2023-01-17T17:01:09.821Z,4.82
2023-01-17T17:03:36.953Z,5.35
2023-01-17T17:06:04.017Z,3.40
2023-01-17T17:08:33.805Z,3.58
2023-01-17T17:11:09.289Z,4.00
2023-01-17T17:13:36.588Z,3.92
2023-01-17T17:16:11.807Z,4.90
2023-01-17T17:21:31.402Z,5.03
2023-01-17T17:24:00.698Z,8.52
2023-01-17T17:26:31.820Z,5.95
2023-01-17T17:28:58.653Z,4.85
2023-01-17T17:31:27.449Z,3.25
2023-01-17T17:33:59.088Z,5.57
2023-01-17T17:36:27.245Z,7.35
2023-01-17T17:38:58.048Z,3.40
2023-01-17T17:41:28.056Z,3.22
2023-01-17T17:43:55.943Z,4.95
2023-01-17T17:46:26.258Z,4.70
2023-01-17T17:48:53.496Z,4.57
2023-01-17T17:51:27.201Z,11.38
2023-01-17T17:53:55.644Z,2.90
2023-01-17T17:58:54.872Z,2.22
2023-01-17T18:01:21.881Z,3.10
2023-01-17T18:03:50.667Z,3.65
2023-01-17T18:06:18.608Z,5.80
2023-01-17T18:08:46.142Z,3.65
2023-01-17T18:11:15.392Z,3.83
2023-01-17T18:13:42.450Z,4.60
2023-01-17T18:16:12.433Z,4.53
2023-01-17T18:18:43.269Z,4.45
2023-01-17T18:21:14.098Z,6.18
2023-01-17T18:23:43.619Z,5.18
2023-01-17T18:26:18.913Z,4.85
2023-01-17T18:28:46.214Z,7.28
2023-01-17T18:31:13.512Z,5.32
2023-01-17T18:33:40.515Z,3.95
2023-01-17T18:36:12.884Z,4.65
2023-01-17T18:38:43.300Z,6.13
2023-01-17T18:41:12.812Z,6.32
2023-01-17T18:43:40.270Z,4.75
2023-01-17T18:46:08.983Z,7.63
2023-01-17T18:48:37.011Z,4.40
2023-01-17T18:51:06.863Z,5.00
2023-01-17T18:53:37.076Z,4.05
2023-01-17T18:56:06.994Z,7.72
2023-01-17T18:58:39.390Z,7.05
2023-01-17T19:01:10.431Z,4.00
2023-01-17T19:03:38.746Z,5.75
2023-01-17T19:06:08.715Z,4.65
2023-01-17T19:08:37.590Z,3.30
2023-01-17T19:11:05.096Z,7.25
2023-01-17T19:13:33.739Z,10.27
2023-01-17T19:16:02.754Z,9.27
2023-01-17T19:18:30.125Z,5.30
2023-01-17T19:21:07.210Z,12.80
2023-01-17T19:23:36.778Z,4.43
2023-01-17T19:26:05.689Z,4.82
2023-01-17T19:28:38.531Z,5.20
2023-01-17T19:31:10.728Z,4.45
2023-01-17T19:36:08.987Z,4.35
2023-01-17T19:38:37.736Z,8.50
2023-01-17T19:41:09.430Z,8.03
2023-01-17T19:43:36.911Z,5.15
2023-01-17T19:46:04.557Z,5.75
2023-01-17T19:48:31.599Z,9.45
2023-01-17T19:51:04.426Z,7.23
2023-01-17T19:53:31.211Z,4.30
2023-01-17T19:56:00.415Z,5.72
2023-01-17T19:58:28.712Z,7.00
2023-01-17T20:01:05.956Z,6.53
2023-01-17T20:03:33.036Z,4.77
2023-01-17T20:06:00.409Z,6.77
2023-01-17T20:08:27.568Z,7.13
2023-01-17T20:10:54.476Z,8.93
2023-01-17T20:13:22.657Z,4.90
2023-01-17T20:15:49.559Z,6.30
2023-01-17T20:18:16.789Z,5.22
2023-01-17T20:20:56.572Z,7.50
2023-01-17T20:23:24.424Z,6.40
2023-01-17T20:25:54.957Z,7.00
2023-01-17T20:28:23.197Z,8.75
2023-01-17T20:30:50.103Z,8.03
2023-01-17T20:33:17.090Z,6.70
2023-01-17T20:35:44.522Z,6.35
2023-01-17T20:38:11.793Z,7.43
2023-01-17T20:40:40.947Z,7.80
2023-01-17T20:43:08.368Z,7.33
2023-01-17T20:45:36.888Z,5.67
2023-01-17T20:48:04.430Z,5.60
2023-01-17T20:50:32.017Z,10.13
2023-01-17T20:52:58.812Z,11.60
2023-01-17T20:55:26.020Z,6.77
2023-01-17T20:57:52.982Z,4.32
2023-01-17T21:00:21.266Z,7.93
2023-01-17T21:02:49.747Z,11.27
2023-01-17T21:05:17.077Z,6.20
2023-01-17T21:07:43.890Z,7.03
2023-01-17T21:10:11.343Z,10.03
2023-01-17T21:12:39.095Z,8.03
2023-01-17T21:15:08.389Z,13.90
2023-01-17T21:17:35.469Z,8.13
2023-01-17T21:20:04.341Z,8.37
2023-01-17T21:22:31.323Z,7.30
2023-01-17T21:24:58.308Z,8.37
2023-01-17T21:27:25.263Z,4.93
2023-01-17T21:29:52.209Z,4.53
2023-01-17T21:32:19.154Z,10.47
2023-01-17T21:34:46.194Z,7.33
2023-01-17T21:37:14.339Z,5.90
2023-01-17T21:39:41.204Z,8.83
2023-01-17T21:42:08.073Z,9.47
2023-01-17T21:44:34.787Z,7.47
2023-01-17T21:47:02.012Z,9.20
2023-01-17T21:49:29.030Z,7.17
2023-01-17T21:51:55.786Z,5.47
2023-01-17T21:54:26.262Z,7.83
2023-01-17T21:56:53.390Z,7.13
2023-01-17T21:59:20.392Z,7.77
2023-01-17T22:01:47.329Z,6.78
2023-01-17T22:04:14.322Z,8.23
2023-01-17T22:06:41.431Z,5.73
2023-01-17T22:09:08.256Z,9.02
2023-01-17T22:11:37.280Z,8.27
2023-01-17T22:14:04.914Z,10.60
2023-01-17T22:16:32.012Z,7.60
2023-01-17T22:18:59.327Z,6.83
2023-01-17T22:21:28.691Z,8.03
2023-01-17T22:23:58.883Z,10.17
2023-01-17T22:26:28.625Z,10.43
2023-01-17T22:29:00.410Z,8.37
2023-01-17T22:31:28.343Z,7.18
2023-01-17T22:33:58.308Z,8.83
2023-01-17T22:36:26.576Z,8.17
2023-01-17T22:38:53.840Z,11.77
2023-01-17T22:41:24.759Z,8.27
2023-01-17T22:43:57.052Z,9.07
2023-01-17T22:46:29.995Z,9.57
2023-01-17T22:48:57.931Z,6.25
2023-01-17T22:51:28.198Z,5.77
2023-01-17T22:53:57.815Z,7.77
2023-01-17T22:56:50.451Z,6.73
2023-01-17T22:59:17.449Z,7.53
2023-01-17T23:01:45.591Z,4.70
2023-01-17T23:04:14.668Z,8.37
2023-01-17T23:06:41.951Z,8.60
2023-01-17T23:09:12.527Z,6.50
2023-01-17T23:11:42.282Z,8.00
2023-01-17T23:14:16.204Z,6.63
2023-01-17T23:16:49.635Z,10.10
2023-01-17T23:19:16.627Z,9.87
2023-01-17T23:21:43.315Z,5.97
2023-01-17T23:24:10.499Z,6.80
2023-01-17T23:26:37.411Z,8.70
2023-01-17T23:29:04.277Z,5.33
2023-01-17T23:31:31.134Z,6.63
2023-01-17T23:33:59.272Z,7.33
2023-01-17T23:36:26.136Z,6.83
2023-01-17T23:38:52.962Z,9.87
2023-01-17T23:41:20.257Z,9.80
2023-01-17T23:43:51.343Z,7.73
2023-01-17T23:46:18.484Z,8.43
2023-01-17T23:48:45.766Z,6.40
2023-01-17T23:51:13.898Z,7.83
2023-01-17T23:53:41.212Z,4.97
2023-01-17T23:56:15.008Z,8.70
2023-01-17T23:58:41.987Z,8.07
